Time;durP1;ratioP1;P1;durP2;ratioP2;P2;SDS_P1;SDS_P2;PMS_P1;PMS_P2;Temp;Humidity;BMP_temperature;BMP_pressure;BME280_temperature;BME280_humidity;BME280_pressure;Samples;Min_cycle;Max_cycle;Signal;HPM_P1;HPM_P2
2024/02/11 00:01:13;;;;;;;43.58;9.45;;;;;;;;;;4955197;28;20023;-47
2024/02/11 00:03:39;;;;;;;42.88;9.45;;;;;;;;;;4955061;28;20447;-48
2024/02/11 00:06:08;;;;;;;33.40;8.63;;;;;;;;;;4953991;29;20366;-47
2024/02/11 00:08:36;;;;;;;41.30;10.07;;;;;;;;;;4954703;28;20114;-47
2024/02/11 00:11:02;;;;;;;35.00;9.25;;;;;;;;;;4959081;28;20114;-47
2024/02/11 00:13:29;;;;;;;36.42;7.70;;;;;;;;;;4961089;28;20098;-47
2024/02/11 00:15:55;;;;;;;19.10;6.70;;;;;;;;;;4953725;28;20412;-48
2024/02/11 00:18:24;;;;;;;30.67;8.32;;;;;;;;;;4974377;28;20566;-47
2024/02/11 00:20:51;;;;;;;34.70;8.65;;;;;;;;;;4973891;28;20045;-47
2024/02/11 00:23:17;;;;;;;31.63;10.05;;;;;;;;;;4973872;28;20027;-50
2024/02/11 00:25:43;;;;;;;29.90;8.57;;;;;;;;;;4972750;28;20027;-48
2024/02/11 00:28:09;;;;;;;28.33;7.57;;;;;;;;;;4965682;28;20034;-47
2024/02/11 00:30:38;;;;;;;35.90;10.13;;;;;;;;;;4965727;28;20027;-47
2024/02/11 00:33:07;;;;;;;31.88;8.95;;;;;;;;;;4943976;28;20125;-47
2024/02/11 00:35:34;;;;;;;44.05;10.40;;;;;;;;;;4961733;28;20094;-46
2024/02/11 00:38:00;;;;;;;27.30;8.15;;;;;;;;;;4954285;28;20027;-47
2024/02/11 00:40:27;;;;;;;30.07;8.77;;;;;;;;;;4954927;28;20027;-47
2024/02/11 00:42:54;;;;;;;35.80;9.75;;;;;;;;;;4963769;28;20059;-47
2024/02/11 00:45:20;;;;;;;26.80;6.97;;;;;;;;;;4954238;28;20444;-47
2024/02/11 00:47:47;;;;;;;25.73;7.72;;;;;;;;;;4966374;28;20030;-47
2024/02/11 00:50:15;;;;;;;26.10;7.15;;;;;;;;;;4972625;28;20033;-49
2024/02/11 00:52:41;;;;;;;31.65;7.63;;;;;;;;;;4973531;28;20403;-47
2024/02/11 00:55:10;;;;;;;23.85;7.68;;;;;;;;;;4973529;28;20506;-47
2024/02/11 00:57:36;;;;;;;26.70;7.82;;;;;;;;;;4971747;28;20058;-48
2024/02/11 01:00:13;;;;;;;28.27;6.68;;;;;;;;;;4969821;28;20035;-48
2024/02/11 01:02:39;;;;;;;23.83;6.72;;;;;;;;;;4964576;28;20035;-47
2024/02/11 01:05:06;;;;;;;30.95;5.78;;;;;;;;;;4971647;28;20061;-48
2024/02/11 01:07:33;;;;;;;26.35;6.90;;;;;;;;;;4954289;28;20027;-49
2024/02/11 01:09:59;;;;;;;22.65;6.97;;;;;;;;;;4958244;28;20030;-48
2024/02/11 01:12:25;;;;;;;31.38;7.63;;;;;;;;;;4964304;28;20086;-47
2024/02/11 01:14:55;;;;;;;29.17;6.57;;;;;;;;;;4965586;28;20517;-47
2024/02/11 01:17:26;;;;;;;23.15;6.05;;;;;;;;;;4960635;28;20806;-47
2024/02/11 01:19:53;;;;;;;25.42;6.57;;;;;;;;;;4968376;28;20085;-47
2024/02/11 01:22:19;;;;;;;20.52;7.53;;;;;;;;;;4964617;28;20114;-47
2024/02/11 01:24:45;;;;;;;26.90;7.55;;;;;;;;;;4960795;28;20057;-48
2024/02/11 01:27:11;;;;;;;20.17;7.67;;;;;;;;;;4972123;28;20495;-47
2024/02/11 01:29:38;;;;;;;25.17;8.13;;;;;;;;;;4957204;28;20031;-47
2024/02/11 01:32:09;;;;;;;;;;;;;;;;;;4967746;28;20030;-47
2024/02/11 01:34:35;;;;;;;17.55;9.07;;;;;;;;;;4962717;28;19941;-47
2024/02/11 01:37:01;;;;;;;16.37;8.53;;;;;;;;;;4971029;28;20035;-47
2024/02/11 01:39:28;;;;;;;16.53;8.93;;;;;;;;;;4968657;28;20039;-47
2024/02/11 01:41:54;;;;;;;21.25;8.70;;;;;;;;;;4971342;28;20279;-47
2024/02/11 01:44:21;;;;;;;15.70;7.27;;;;;;;;;;4961348;28;20023;-47
2024/02/11 01:46:48;;;;;;;17.27;8.50;;;;;;;;;;4957530;28;20026;-47
2024/02/11 01:49:14;;;;;;;11.17;7.80;;;;;;;;;;4954580;28;20027;-47
2024/02/11 01:51:45;;;;;;;17.07;10.07;;;;;;;;;;4952709;28;20118;-47
2024/02/11 01:54:12;;;;;;;16.98;8.23;;;;;;;;;;4956651;28;20319;-50
2024/02/11 01:56:39;;;;;;;21.52;9.45;;;;;;;;;;4970134;28;20392;-47
2024/02/11 01:59:06;;;;;;;17.27;8.57;;;;;;;;;;4962200;28;20031;-47
2024/02/11 02:01:33;;;;;;;16.80;8.10;;;;;;;;;;4955925;28;20476;-47
2024/02/11 02:03:59;;;;;;;13.35;7.57;;;;;;;;;;4963638;28;20034;-48
2024/02/11 02:06:25;;;;;;;19.20;7.23;;;;;;;;;;4966081;28;20090;-47
2024/02/11 02:08:52;;;;;;;19.02;8.07;;;;;;;;;;4957114;28;20263;-47
2024/02/11 02:11:19;;;;;;;11.95;7.28;;;;;;;;;;4970454;28;20559;-49
2024/02/11 02:13:45;;;;;;;15.55;7.35;;;;;;;;;;4971637;28;20023;-47
2024/02/11 02:16:11;;;;;;;14.02;7.25;;;;;;;;;;4958378;28;20114;-48
2024/02/11 02:18:38;;;;;;;11.43;6.97;;;;;;;;;;4956574;28;20035;-47
2024/02/11 02:21:06;;;;;;;11.77;6.85;;;;;;;;;;4955742;28;20031;-47
2024/02/11 02:23:32;;;;;;;12.55;6.78;;;;;;;;;;4957668;28;20529;-47
2024/02/11 02:26:00;;;;;;;13.25;7.30;;;;;;;;;;4957164;28;20431;-48
2024/02/11 02:28:26;;;;;;;14.98;7.20;;;;;;;;;;4957078;28;20117;-47
2024/02/11 02:30:52;;;;;;;11.73;6.38;;;;;;;;;;4973573;28;20062;-47
2024/02/11 02:33:18;;;;;;;9.30;6.27;;;;;;;;;;4962108;28;20038;-47
2024/02/11 02:35:45;;;;;;;12.02;5.82;;;;;;;;;;4957647;28;20024;-47
2024/02/11 02:38:11;;;;;;;8.73;5.90;;;;;;;;;;4967578;28;20518;-47
2024/02/11 02:40:37;;;;;;;8.60;5.32;;;;;;;;;;4975228;28;20161;-47
2024/02/11 02:43:09;;;;;;;7.88;4.75;;;;;;;;;;4974510;28;20376;-47
2024/02/11 02:45:35;;;;;;;10.32;5.80;;;;;;;;;;4964161;28;20027;-47
2024/02/11 02:48:01;;;;;;;7.32;4.63;;;;;;;;;;4956517;28;20491;-46
2024/02/11 02:50:28;;;;;;;8.73;5.47;;;;;;;;;;4958017;28;20023;-47
2024/02/11 02:52:54;;;;;;;10.35;5.72;;;;;;;;;;4956350;28;20118;-49
2024/02/11 02:55:20;;;;;;;12.80;4.93;;;;;;;;;;4964717;28;20133;-48
2024/02/11 02:57:46;;;;;;;9.25;5.22;;;;;;;;;;4974136;28;20046;-47
2024/02/11 03:00:13;;;;;;;6.80;5.68;;;;;;;;;;4964950;28;20551;-48
2024/02/11 03:02:39;;;;;;;12.20;5.07;;;;;;;;;;4962280;28;20059;-47
2024/02/11 03:05:05;;;;;;;8.13;4.82;;;;;;;;;;4966150;28;20294;-51
2024/02/11 03:07:31;;;;;;;10.17;5.47;;;;;;;;;;4975225;28;20034;-47
2024/02/11 03:09:59;;;;;;;10.85;4.45;;;;;;;;;;4962920;28;20047;-47
2024/02/11 03:12:25;;;;;;;7.43;5.32;;;;;;;;;;4969509;28;20506;-47
2024/02/11 03:14:51;;;;;;;9.60;5.10;;;;;;;;;;4962823;28;20031;-47
2024/02/11 03:17:17;;;;;;;6.80;5.03;;;;;;;;;;4975098;28;20053;-47
2024/02/11 03:19:44;;;;;;;9.25;5.00;;;;;;;;;;4975005;28;20304;-47
2024/02/11 03:22:13;;;;;;;7.00;5.28;;;;;;;;;;4973393;28;20038;-47
2024/02/11 03:24:41;;;;;;;8.27;5.13;;;;;;;;;;4973216;28;20051;-47
2024/02/11 03:27:07;;;;;;;8.18;4.75;;;;;;;;;;4967950;28;20028;-47
2024/02/11 03:29:34;;;;;;;7.50;5.13;;;;;;;;;;4969263;28;20399;-47
2024/02/11 03:32:00;;;;;;;7.20;5.27;;;;;;;;;;4969790;28;20074;-47
2024/02/11 03:34:26;;;;;;;10.40;5.70;;;;;;;;;;4972431;28;20015;-48
2024/02/11 03:36:53;;;;;;;11.70;5.27;;;;;;;;;;4974401;28;20411;-47
2024/02/11 03:39:19;;;;;;;7.32;5.07;;;;;;;;;;4970743;28;20050;-47
2024/02/11 03:41:46;;;;;;;7.40;5.18;;;;;;;;;;4954268;29;20027;-47
2024/02/11 03:44:12;;;;;;;7.97;5.40;;;;;;;;;;4959877;28;20031;-47
2024/02/11 03:46:39;;;;;;;6.45;5.72;;;;;;;;;;4957971;28;20448;-47
2024/02/11 03:49:06;;;;;;;8.43;5.57;;;;;;;;;;4967598;28;20030;-48
2024/02/11 03:51:32;;;;;;;10.07;5.93;;;;;;;;;;4957714;28;20042;-47
2024/02/11 03:54:02;;;;;;;10.13;6.63;;;;;;;;;;4954132;28;20038;-47
2024/02/11 03:56:29;;;;;;;7.85;5.53;;;;;;;;;;4969871;28;20109;-47
2024/02/11 03:58:55;;;;;;;7.17;4.90;;;;;;;;;;4973565;28;20039;-47
2024/02/11 04:01:22;;;;;;;9.20;6.18;;;;;;;;;;4964094;28;20039;-47
2024/02/11 04:03:48;;;;;;;10.73;6.78;;;;;;;;;;4972708;28;20031;-47
2024/02/11 04:06:18;;;;;;;8.43;5.95;;;;;;;;;;4960030;28;20059;-47
2024/02/11 04:08:44;;;;;;;9.02;5.68;;;;;;;;;;4957551;28;20027;-47
2024/02/11 04:11:11;;;;;;;9.85;5.60;;;;;;;;;;4964670;28;20035;-47
2024/02/11 04:13:37;;;;;;;11.77;5.95;;;;;;;;;;4955172;28;20038;-48
2024/02/11 04:16:15;;;;;;;11.33;6.53;;;;;;;;;;4964903;28;20062;-47
2024/02/11 04:18:41;;;;;;;15.93;7.07;;;;;;;;;;4970592;28;20050;-47
2024/02/11 04:21:07;;;;;;;13.57;6.57;;;;;;;;;;4954856;28;20560;-48
2024/02/11 04:23:33;;;;;;;8.30;6.40;;;;;;;;;;4969403;28;20332;-49
2024/02/11 04:26:08;;;;;;;9.05;5.75;;;;;;;;;;4964582;28;20034;-50
2024/02/11 04:28:37;;;;;;;8.63;6.60;;;;;;;;;;4968205;28;20038;-47
2024/02/11 04:31:04;;;;;;;11.32;6.60;;;;;;;;;;4966521;28;20090;-47
2024/02/11 04:33:33;;;;;;;11.13;6.40;;;;;;;;;;4959739;28;20523;-47
2024/02/11 04:36:00;;;;;;;10.68;7.57;;;;;;;;;;4970282;28;20031;-47
2024/02/11 04:38:27;;;;;;;10.75;6.45;;;;;;;;;;4973762;28;20092;-47
2024/02/11 04:40:55;;;;;;;9.63;7.20;;;;;;;;;;4973789;28;20057;-47
2024/02/11 04:43:21;;;;;;;10.45;8.10;;;;;;;;;;4959088;28;20031;-47
2024/02/11 04:45:48;;;;;;;14.80;7.80;;;;;;;;;;4956082;28;20093;-47
2024/02/11 04:48:14;;;;;;;10.30;7.57;;;;;;;;;;4956570;28;20489;-49
2024/02/11 04:50:40;;;;;;;11.17;7.43;;;;;;;;;;4955427;28;20050;-48
2024/02/11 04:53:08;;;;;;;10.00;7.30;;;;;;;;;;4961655;28;20480;-47
2024/02/11 04:55:43;;;;;;;10.45;7.40;;;;;;;;;;4972228;28;20443;-48
2024/02/11 04:58:19;;;;;;;10.50;7.28;;;;;;;;;;4960128;28;20031;-47
2024/02/11 05:00:51;;;;;;;10.13;6.93;;;;;;;;;;4959770;28;20030;-47
2024/02/11 05:03:17;;;;;;;12.45;8.07;;;;;;;;;;4972610;28;20472;-47
2024/02/11 05:05:44;;;;;;;12.63;7.88;;;;;;;;;;4969430;28;20034;-47
2024/02/11 05:08:16;;;;;;;11.75;7.10;;;;;;;;;;4970683;28;20420;-48
2024/02/11 05:10:43;;;;;;;13.02;7.75;;;;;;;;;;4961241;28;20562;-47
2024/02/11 05:13:14;;;;;;;10.52;7.38;;;;;;;;;;4961608;28;20408;-47
2024/02/11 05:15:41;;;;;;;11.02;7.10;;;;;;;;;;4957122;28;20035;-47
2024/02/11 05:18:11;;;;;;;12.38;7.50;;;;;;;;;;4953535;28;20062;-47
2024/02/11 05:20:38;;;;;;;8.52;7.05;;;;;;;;;;4958833;28;20480;-48
2024/02/11 05:23:09;;;;;;;8.55;7.20;;;;;;;;;;4967899;28;20038;-47
2024/02/11 05:25:36;;;;;;;9.82;7.22;;;;;;;;;;4952147;28;20110;-48
2024/02/11 05:28:03;;;;;;;11.15;7.53;;;;;;;;;;4953698;28;20030;-47
2024/02/11 05:30:29;;;;;;;;;;;;;;;;;;4954122;28;20024;-47
2024/02/11 05:33:00;;;;;;;14.48;7.15;;;;;;;;;;4953754;28;19911;-48
2024/02/11 05:35:29;;;;;;;8.55;6.75;;;;;;;;;;4953014;28;20043;-47
2024/02/11 05:37:58;;;;;;;8.77;7.82;;;;;;;;;;4957951;28;20391;-48
2024/02/11 05:40:26;;;;;;;9.95;7.07;;;;;;;;;;4972983;28;20276;-50
2024/02/11 05:42:52;;;;;;;13.40;7.15;;;;;;;;;;4972897;28;20491;-47
2024/02/11 05:45:18;;;;;;;12.73;8.35;;;;;;;;;;4972741;28;20038;-48
2024/02/11 05:47:44;;;;;;;10.10;7.22;;;;;;;;;;4972855;28;20023;-50
2024/02/11 05:50:12;;;;;;;9.93;8.35;;;;;;;;;;4972774;28;20027;-47
2024/02/11 05:52:39;;;;;;;10.65;8.10;;;;;;;;;;4972886;28;20131;-47
2024/02/11 05:55:09;;;;;;;8.45;7.57;;;;;;;;;;4971407;28;20035;-50
2024/02/11 05:57:41;;;;;;;8.65;7.72;;;;;;;;;;4972745;28;20487;-49
2024/02/11 06:00:12;;;;;;;11.73;7.75;;;;;;;;;;4956830;28;20431;-48
2024/02/11 06:02:44;;;;;;;8.82;7.25;;;;;;;;;;4972183;28;20111;-48
2024/02/11 06:05:13;;;;;;;9.15;7.55;;;;;;;;;;4962857;28;20031;-47
2024/02/11 06:07:45;;;;;;;13.45;7.43;;;;;;;;;;4957453;28;20031;-50
2024/02/11 06:10:12;;;;;;;12.30;7.72;;;;;;;;;;4964084;28;20176;-50
2024/02/11 06:12:39;;;;;;;;;;;;;;;;;;4957168;28;20411;-48
2024/02/11 06:15:07;;;;;;;11.88;7.53;;;;;;;;;;4970701;28;19914;-49
2024/02/11 06:17:34;;;;;;;10.77;8.60;;;;;;;;;;4969118;28;20522;-50
2024/02/11 06:20:01;;;;;;;10.65;7.90;;;;;;;;;;4972026;28;20031;-49
2024/02/11 06:22:29;;;;;;;10.53;9.03;;;;;;;;;;4971940;28;20400;-47
2024/02/11 06:24:58;;;;;;;9.13;7.55;;;;;;;;;;4967670;28;20361;-47
2024/02/11 06:27:25;;;;;;;10.60;8.65;;;;;;;;;;4970851;28;20419;-47
2024/02/11 06:29:51;;;;;;;10.55;8.63;;;;;;;;;;4969641;28;20697;-47
2024/02/11 06:32:17;;;;;;;9.75;8.75;;;;;;;;;;4960531;28;20023;-47
2024/02/11 06:34:43;;;;;;;11.10;8.98;;;;;;;;;;4952040;28;20039;-48
2024/02/11 06:37:10;;;;;;;10.48;8.70;;;;;;;;;;4968340;28;20110;-51
2024/02/11 06:39:40;;;;;;;18.45;9.57;;;;;;;;;;4967271;28;20035;-48
2024/02/11 06:42:09;;;;;;;9.85;8.40;;;;;;;;;;4971732;28;20037;-50
2024/02/11 06:44:38;;;;;;;12.38;9.48;;;;;;;;;;4955165;28;20424;-48
2024/02/11 06:47:05;;;;;;;11.18;9.43;;;;;;;;;;4953539;28;20019;-51
2024/02/11 06:49:32;;;;;;;;;;;;;;;;;;4956338;28;20031;-50
2024/02/11 06:51:58;;;;;;;9.77;8.75;;;;;;;;;;4967194;28;19910;-47
2024/02/11 06:54:25;;;;;;;9.48;8.52;;;;;;;;;;4970503;28;20034;-48
2024/02/11 06:56:53;;;;;;;11.45;9.57;;;;;;;;;;4975392;28;20027;-47
2024/02/11 06:59:19;;;;;;;;;;;;;;;;;;4975973;28;20062;-48
2024/02/11 07:01:45;;;;;;;13.25;9.75;;;;;;;;;;4958106;28;20007;-51
2024/02/11 07:04:14;;;;;;;15.02;10.30;;;;;;;;;;4956867;28;20032;-47
2024/02/11 07:06:47;;;;;;;12.45;10.98;;;;;;;;;;4955538;28;20034;-49
2024/02/11 07:09:13;;;;;;;12.82;11.30;;;;;;;;;;4961447;28;20058;-49
2024/02/11 07:11:40;;;;;;;13.63;11.00;;;;;;;;;;4971129;28;20018;-50
2024/02/11 07:14:07;;;;;;;14.70;11.02;;;;;;;;;;4988423;28;20030;-49
2024/02/11 07:16:45;;;;;;;10.73;9.43;;;;;;;;;;4962963;28;20058;-47
2024/02/11 07:19:12;;;;;;;12.77;10.52;;;;;;;;;;4975231;28;20035;-49
2024/02/11 07:21:40;;;;;;;11.82;9.75;;;;;;;;;;4975130;28;20031;-48
2024/02/11 07:24:07;;;;;;;14.82;10.90;;;;;;;;;;4973908;28;20031;-47
2024/02/11 07:26:34;;;;;;;13.50;9.30;;;;;;;;;;4983368;28;20033;-50
2024/02/11 07:29:00;;;;;;;9.85;8.80;;;;;;;;;;4977637;28;20023;-48
2024/02/11 07:31:27;;;;;;;11.30;9.05;;;;;;;;;;4969543;28;20024;-47
2024/02/11 07:33:54;;;;;;;11.32;9.48;;;;;;;;;;4954435;28;20504;-47
2024/02/11 07:36:22;;;;;;;12.82;8.70;;;;;;;;;;4986796;28;20039;-49
2024/02/11 07:38:51;;;;;;;11.20;8.88;;;;;;;;;;4974724;28;20125;-48
2024/02/11 07:41:21;;;;;;;11.80;8.98;;;;;;;;;;4974841;28;20030;-49
2024/02/11 07:43:47;;;;;;;10.93;8.27;;;;;;;;;;4974698;28;20532;-49
2024/02/11 07:46:14;;;;;;;9.50;7.78;;;;;;;;;;4974604;28;20106;-49
2024/02/11 07:48:40;;;;;;;12.30;7.70;;;;;;;;;;4973419;28;20559;-47
2024/02/11 07:51:07;;;;;;;8.57;7.00;;;;;;;;;;4971799;28;20071;-49
2024/02/11 07:53:33;;;;;;;9.68;7.63;;;;;;;;;;4964183;28;20514;-47
2024/02/11 07:56:00;;;;;;;10.85;7.68;;;;;;;;;;4974448;28;20492;-49
2024/02/11 07:58:26;;;;;;;12.05;7.70;;;;;;;;;;4957359;28;20031;-47
2024/02/11 08:00:52;;;;;;;8.35;6.90;;;;;;;;;;4955244;28;20035;-47
2024/02/11 08:03:20;;;;;;;10.75;8.90;;;;;;;;;;4955038;28;20147;-48
2024/02/11 08:05:46;;;;;;;15.52;10.13;;;;;;;;;;4953684;28;20058;-50
2024/02/11 08:08:12;;;;;;;12.20;9.30;;;;;;;;;;4964298;28;20027;-47
2024/02/11 08:10:39;;;;;;;11.27;9.07;;;;;;;;;;4993771;28;20026;-49
2024/02/11 08:13:08;;;;;;;13.15;9.18;;;;;;;;;;4977436;28;20022;-48
2024/02/11 08:15:35;;;;;;;8.88;6.53;;;;;;;;;;4973770;28;20027;-50
2024/02/11 08:18:04;;;;;;;8.30;6.30;;;;;;;;;;4958506;28;20392;-49
2024/02/11 08:20:33;;;;;;;6.13;5.50;;;;;;;;;;4959169;28;20039;-49
2024/02/11 08:23:00;;;;;;;6.32;5.18;;;;;;;;;;4962045;28;20484;-49
2024/02/11 08:25:26;;;;;;;6.03;4.95;;;;;;;;;;4963436;28;20034;-49
2024/02/11 08:27:53;;;;;;;6.70;5.32;;;;;;;;;;4961468;28;20030;-50
2024/02/11 08:30:22;;;;;;;7.03;5.43;;;;;;;;;;4961319;28;20046;-47
2024/02/11 08:32:48;;;;;;;5.50;4.53;;;;;;;;;;4962382;28;20053;-49
2024/02/11 08:35:15;;;;;;;6.07;5.20;;;;;;;;;;4959912;28;20030;-48
2024/02/11 08:37:41;;;;;;;6.90;5.20;;;;;;;;;;4969640;28;20038;-48
2024/02/11 08:40:08;;;;;;;5.10;4.60;;;;;;;;;;4963006;28;20114;-48
2024/02/11 08:42:35;;;;;;;;;;;;;;;;;;4964853;28;20036;-49
2024/02/11 08:45:01;;;;;;;7.15;5.13;;;;;;;;;;4969019;28;19921;-47
2024/02/11 08:47:27;;;;;;;7.20;4.70;;;;;;;;;;4969175;28;20049;-48
2024/02/11 08:49:54;;;;;;;4.35;3.95;;;;;;;;;;4964737;28;20023;-48
2024/02/11 08:52:20;;;;;;;5.57;4.85;;;;;;;;;;4963933;28;20027;-49
2024/02/11 08:54:47;;;;;;;4.10;3.70;;;;;;;;;;4957076;28;20062;-47
2024/02/11 08:57:17;;;;;;;5.13;3.72;;;;;;;;;;4970155;28;20031;-49
2024/02/11 08:59:46;;;;;;;4.43;3.90;;;;;;;;;;4960840;28;20069;-47
2024/02/11 09:02:14;;;;;;;8.88;3.70;;;;;;;;;;4961939;28;20329;-47
2024/02/11 09:04:42;;;;;;;4.78;3.85;;;;;;;;;;4952918;28;20082;-47
2024/02/11 09:07:09;;;;;;;4.30;3.42;;;;;;;;;;4971665;28;20026;-47
2024/02/11 09:09:35;;;;;;;3.45;2.95;;;;;;;;;;4957924;28;20510;-48
2024/02/11 09:12:02;;;;;;;4.55;3.67;;;;;;;;;;4958174;28;20026;-47
2024/02/11 09:14:29;;;;;;;5.28;3.90;;;;;;;;;;4968463;28;20035;-47
2024/02/11 09:16:59;;;;;;;4.82;4.07;;;;;;;;;;4953509;28;20123;-48
2024/02/11 09:19:26;;;;;;;6.03;4.65;;;;;;;;;;4965357;28;20041;-48
2024/02/11 09:21:53;;;;;;;6.10;5.07;;;;;;;;;;4954007;28;20039;-47
2024/02/11 09:24:19;;;;;;;5.68;4.72;;;;;;;;;;4967556;28;20019;-51
2024/02/11 09:26:47;;;;;;;5.93;5.13;;;;;;;;;;4963431;28;20051;-51
2024/02/11 09:29:13;;;;;;;6.55;5.53;;;;;;;;;;4950982;28;20512;-46
2024/02/11 09:31:40;;;;;;;8.35;5.85;;;;;;;;;;4952426;28;20031;-52
2024/02/11 09:34:06;;;;;;;7.38;6.25;;;;;;;;;;4955989;28;20070;-48
2024/02/11 09:36:33;;;;;;;9.32;6.57;;;;;;;;;;4963416;28;20034;-49
2024/02/11 09:39:00;;;;;;;9.98;7.05;;;;;;;;;;4969977;28;20054;-52
2024/02/11 09:41:30;;;;;;;11.10;7.80;;;;;;;;;;4970287;28;20046;-48
2024/02/11 09:44:01;;;;;;;9.18;7.43;;;;;;;;;;4967881;28;20147;-48
2024/02/11 09:46:37;;;;;;;11.20;7.43;;;;;;;;;;4963454;28;20430;-50
2024/02/11 09:49:20;;;;;;;10.27;7.75;;;;;;;;;;4971455;28;20498;-50
2024/02/11 09:51:48;;;;;;;12.68;8.45;;;;;;;;;;4950848;28;20089;-47
2024/02/11 09:54:15;;;;;;;10.70;8.60;;;;;;;;;;4970526;28;20034;-47
2024/02/11 09:56:42;;;;;;;10.85;8.35;;;;;;;;;;4964895;28;20110;-50
2024/02/11 09:59:12;;;;;;;9.25;7.35;;;;;;;;;;4962098;28;20027;-52
2024/02/11 10:01:38;;;;;;;9.65;7.35;;;;;;;;;;4959162;28;20038;-50
2024/02/11 10:04:06;;;;;;;11.43;7.78;;;;;;;;;;4964914;28;20034;-49
2024/02/11 10:06:37;;;;;;;9.80;7.20;;;;;;;;;;4945291;28;20605;-48
2024/02/11 10:09:04;;;;;;;9.02;6.65;;;;;;;;;;4955503;28;20031;-47
2024/02/11 10:11:31;;;;;;;;;;;;;;;;;;4952515;28;20036;-51
2024/02/11 10:13:59;;;;;;;9.43;7.30;;;;;;;;;;4952502;28;19918;-48
2024/02/11 10:16:29;;;;;;;8.38;6.15;;;;;;;;;;4950934;28;20039;-48
2024/02/11 10:18:58;;;;;;;9.20;7.00;;;;;;;;;;4951964;28;20031;-50
2024/02/11 10:21:25;;;;;;;9.32;7.00;;;;;;;;;;4951873;28;20516;-49
2024/02/11 10:23:51;;;;;;;10.13;7.38;;;;;;;;;;4972921;28;20097;-49
2024/02/11 10:26:18;;;;;;;10.33;7.23;;;;;;;;;;4956520;28;20039;-48
2024/02/11 10:28:44;;;;;;;8.20;7.30;;;;;;;;;;4963597;28;20632;-48
2024/02/11 10:31:11;;;;;;;9.35;7.10;;;;;;;;;;4970605;28;20153;-52
2024/02/11 10:33:37;;;;;;;9.70;7.53;;;;;;;;;;4957587;28;20031;-47
2024/02/11 10:36:04;;;;;;;11.15;7.57;;;;;;;;;;4967899;28;20030;-49
2024/02/11 10:38:32;;;;;;;8.80;6.45;;;;;;;;;;4965262;28;20039;-47
2024/02/11 10:40:58;;;;;;;9.35;7.78;;;;;;;;;;4970113;28;20121;-47
2024/02/11 10:43:26;;;;;;;7.50;6.55;;;;;;;;;;4969753;28;20042;-50
2024/02/11 10:45:53;;;;;;;9.80;7.32;;;;;;;;;;4959768;28;20049;-50
2024/02/11 10:48:21;;;;;;;12.43;7.60;;;;;;;;;;4973505;28;20035;-49
2024/02/11 10:50:54;;;;;;;10.80;7.57;;;;;;;;;;4974460;28;20050;-47
2024/02/11 10:53:23;;;;;;;12.52;8.00;;;;;;;;;;4981765;28;20084;-50
2024/02/11 10:55:51;;;;;;;7.22;6.38;;;;;;;;;;4988255;28;20777;-47
2024/02/11 10:58:19;;;;;;;10.98;7.38;;;;;;;;;;4962193;28;20501;-49
2024/02/11 11:00:46;;;;;;;8.75;7.38;;;;;;;;;;4983217;28;20030;-49
2024/02/11 11:03:14;;;;;;;14.55;7.35;;;;;;;;;;4976356;28;20034;-49
2024/02/11 11:05:43;;;;;;;9.02;6.80;;;;;;;;;;4987241;28;20081;-47
2024/02/11 11:08:12;;;;;;;11.25;6.97;;;;;;;;;;4963396;28;20114;-47
2024/02/11 11:10:38;;;;;;;9.30;6.90;;;;;;;;;;4966959;28;20023;-47
2024/02/11 11:13:05;;;;;;;8.02;6.43;;;;;;;;;;4961310;28;20389;-49
2024/02/11 11:15:31;;;;;;;8.77;6.10;;;;;;;;;;4983333;28;20328;-48
2024/02/11 11:17:59;;;;;;;9.43;6.10;;;;;;;;;;4973822;28;20255;-49
2024/02/11 11:20:26;;;;;;;10.73;6.68;;;;;;;;;;4973465;28;20033;-50
2024/02/11 11:22:55;;;;;;;8.48;6.45;;;;;;;;;;4959581;28;20039;-47
2024/02/11 11:25:31;;;;;;;7.38;6.50;;;;;;;;;;4979649;28;20126;-48
2024/02/11 11:28:14;;;;;;;7.43;6.40;;;;;;;;;;4965873;28;20035;-48
2024/02/11 11:30:41;;;;;;;10.27;6.85;;;;;;;;;;4962807;28;20382;-47
2024/02/11 11:33:10;;;;;;;8.48;6.25;;;;;;;;;;4964898;28;20527;-49
2024/02/11 11:35:36;;;;;;;6.97;5.95;;;;;;;;;;4953942;28;20042;-47
2024/02/11 11:38:02;;;;;;;8.13;5.65;;;;;;;;;;4964703;28;20077;-47
2024/02/11 11:40:37;;;;;;;8.32;6.78;;;;;;;;;;4963052;28;20104;-47
2024/02/11 11:43:16;;;;;;;7.43;5.60;;;;;;;;;;4983425;28;20037;-47
2024/02/11 11:45:49;;;;;;;6.93;5.45;;;;;;;;;;4992561;28;20022;-47
2024/02/11 11:48:16;;;;;;;7.80;6.05;;;;;;;;;;4991538;28;20022;-51
2024/02/11 11:50:42;;;;;;;7.68;6.25;;;;;;;;;;4993667;28;20022;-47
2024/02/11 11:53:08;;;;;;;8.57;6.03;;;;;;;;;;4992793;28;20117;-47
2024/02/11 11:55:36;;;;;;;6.50;5.80;;;;;;;;;;4983718;28;20038;-46
2024/02/11 11:58:02;;;;;;;9.55;6.45;;;;;;;;;;4981252;28;20274;-49
2024/02/11 12:00:29;;;;;;;7.65;5.82;;;;;;;;;;4969980;28;20026;-46
2024/02/11 12:02:58;;;;;;;13.10;7.13;;;;;;;;;;4959153;28;20030;-48
2024/02/11 12:05:24;;;;;;;6.47;5.78;;;;;;;;;;4961708;28;20027;-50
2024/02/11 12:07:50;;;;;;;8.10;7.18;;;;;;;;;;4970083;28;20033;-47
2024/02/11 12:10:17;;;;;;;8.65;7.18;;;;;;;;;;4959271;28;20023;-47
2024/02/11 12:12:43;;;;;;;9.52;7.20;;;;;;;;;;4962572;28;20053;-47
2024/02/11 12:15:09;;;;;;;8.73;7.15;;;;;;;;;;4970868;28;20027;-47
2024/02/11 12:17:36;;;;;;;9.18;7.97;;;;;;;;;;4969005;28;20034;-46
2024/02/11 12:20:02;;;;;;;8.48;7.22;;;;;;;;;;4953368;28;20039;-46
2024/02/11 12:22:28;;;;;;;8.30;7.50;;;;;;;;;;4953353;28;20114;-49
2024/02/11 12:24:56;;;;;;;8.93;7.55;;;;;;;;;;4952274;28;20023;-47
2024/02/11 12:27:22;;;;;;;8.68;7.78;;;;;;;;;;4964860;28;20635;-46
2024/02/11 12:30:00;;;;;;;8.90;7.95;;;;;;;;;;4957246;28;20035;-49
2024/02/11 12:32:26;;;;;;;10.05;8.15;;;;;;;;;;4964343;28;20190;-48
2024/02/11 12:34:56;;;;;;;7.97;7.18;;;;;;;;;;4968464;28;20035;-49
2024/02/11 12:37:24;;;;;;;8.98;6.68;;;;;;;;;;4966356;28;20037;-49
2024/02/11 12:39:54;;;;;;;11.00;7.68;;;;;;;;;;4969420;28;20379;-47
2024/02/11 12:42:20;;;;;;;8.52;6.93;;;;;;;;;;4970942;28;20373;-51
2024/02/11 12:44:47;;;;;;;7.00;6.20;;;;;;;;;;4952800;28;20031;-47
2024/02/11 12:47:14;;;;;;;6.77;5.87;;;;;;;;;;4954396;28;20282;-52
2024/02/11 12:49:40;;;;;;;8.48;6.32;;;;;;;;;;4971015;28;20824;-48
2024/02/11 12:52:06;;;;;;;6.70;5.97;;;;;;;;;;4966857;28;20115;-47
2024/02/11 12:54:33;;;;;;;6.97;5.72;;;;;;;;;;4953794;28;20062;-47
2024/02/11 12:56:59;;;;;;;6.20;5.40;;;;;;;;;;4968983;28;20035;-49
2024/02/11 12:59:27;;;;;;;7.68;6.55;;;;;;;;;;4972150;28;20113;-47
2024/02/11 13:01:53;;;;;;;6.32;5.68;;;;;;;;;;4969935;28;20041;-47
2024/02/11 13:04:20;;;;;;;6.72;5.55;;;;;;;;;;4962275;28;20106;-47
2024/02/11 13:06:46;;;;;;;5.07;4.53;;;;;;;;;;4953447;28;20059;-46
2024/02/11 13:09:13;;;;;;;5.18;4.68;;;;;;;;;;4953239;28;20521;-46
2024/02/11 13:11:40;;;;;;;6.85;4.70;;;;;;;;;;4952875;28;20039;-50
2024/02/11 13:14:07;;;;;;;7.25;4.28;;;;;;;;;;4970780;28;20027;-47
2024/02/11 13:16:33;;;;;;;5.72;5.13;;;;;;;;;;4959766;28;20027;-47
2024/02/11 13:19:01;;;;;;;6.17;5.23;;;;;;;;;;4970385;28;20093;-46
2024/02/11 13:21:28;;;;;;;5.72;4.97;;;;;;;;;;4970281;28;20391;-46
2024/02/11 13:23:54;;;;;;;5.93;5.28;;;;;;;;;;4961049;28;20397;-48
2024/02/11 13:26:22;;;;;;;4.38;3.97;;;;;;;;;;4952723;28;20027;-47
2024/02/11 13:28:49;;;;;;;5.97;5.30;;;;;;;;;;4952498;28;20106;-48
2024/02/11 13:31:15;;;;;;;5.82;5.32;;;;;;;;;;4954859;28;20156;-46
2024/02/11 13:33:41;;;;;;;6.13;5.13;;;;;;;;;;4970450;28;20035;-47
2024/02/11 13:36:10;;;;;;;6.82;5.20;;;;;;;;;;4960279;28;20436;-46
2024/02/11 13:38:36;;;;;;;5.28;4.78;;;;;;;;;;4952474;28;20046;-47
2024/02/11 13:41:04;;;;;;;5.20;4.70;;;;;;;;;;4966013;28;20031;-47
2024/02/11 13:43:32;;;;;;;4.30;3.90;;;;;;;;;;4967669;28;20275;-47
2024/02/11 13:45:59;;;;;;;4.57;3.88;;;;;;;;;;4959781;28;20396;-50
2024/02/11 13:48:25;;;;;;;4.30;3.90;;;;;;;;;;4952207;28;20031;-47
2024/02/11 13:50:51;;;;;;;6.88;4.80;;;;;;;;;;4952387;28;20023;-48
2024/02/11 13:53:17;;;;;;;4.53;4.13;;;;;;;;;;4952163;28;20404;-46
2024/02/11 13:55:44;;;;;;;7.97;4.57;;;;;;;;;;4950129;28;20074;-46
2024/02/11 13:58:11;;;;;;;5.25;3.85;;;;;;;;;;4954969;28;20024;-49
2024/02/11 14:00:37;;;;;;;4.75;4.20;;;;;;;;;;4959844;28;20496;-47
2024/02/11 14:03:04;;;;;;;4.55;3.78;;;;;;;;;;4974059;28;20070;-47
2024/02/11 14:05:30;;;;;;;5.45;4.53;;;;;;;;;;4969182;28;20023;-47
2024/02/11 14:07:57;;;;;;;4.78;4.28;;;;;;;;;;4961293;28;20097;-47
2024/02/11 14:10:23;;;;;;;4.93;4.33;;;;;;;;;;4969623;28;20035;-47
2024/02/11 14:12:49;;;;;;;4.53;4.07;;;;;;;;;;4962717;28;20040;-47
2024/02/11 14:15:15;;;;;;;4.85;4.30;;;;;;;;;;4971900;28;20034;-49
2024/02/11 14:17:46;;;;;;;3.80;3.50;;;;;;;;;;4958035;28;20031;-46
2024/02/11 14:20:13;;;;;;;5.00;4.43;;;;;;;;;;4955775;28;20035;-48
2024/02/11 14:22:40;;;;;;;5.20;4.68;;;;;;;;;;4966311;28;20115;-47
2024/02/11 14:25:08;;;;;;;4.75;4.13;;;;;;;;;;4955677;28;20031;-46
2024/02/11 14:27:34;;;;;;;4.07;3.60;;;;;;;;;;4955443;28;20495;-47
2024/02/11 14:30:01;;;;;;;3.67;3.33;;;;;;;;;;4955527;28;20567;-49
2024/02/11 14:32:29;;;;;;;5.13;3.97;;;;;;;;;;4973170;28;20062;-47
2024/02/11 14:34:57;;;;;;;4.63;4.20;;;;;;;;;;4954113;29;20039;-47
2024/02/11 14:37:23;;;;;;;5.97;4.55;;;;;;;;;;4955283;28;20146;-47
2024/02/11 14:39:50;;;;;;;5.00;4.25;;;;;;;;;;4955772;28;20039;-48